Time;durP1;ratioP1;P1;durP2;ratioP2;P2;SDS_P1;SDS_P2;PMS_P1;PMS_P2;Temp;Humidity;BMP_temperature;BMP_pressure;BME280_temperature;BME280_humidity;BME280_pressure;Samples;Min_cycle;Max_cycle;Signal;HPM_P1;HPM_P2
2022/11/16 00:01:19;;;;;;;10.37;8.30;;;9.10;99.90;;;;;;5014669;28;20548;-85
2022/11/16 00:03:45;;;;;;;10.93;8.33;;;9.10;99.90;;;;;;5031005;28;20190;-85
2022/11/16 00:06:12;;;;;;;10.33;8.50;;;9.20;99.90;;;;;;5014914;28;20273;-85
2022/11/16 00:08:44;;;;;;;10.87;8.47;;;9.10;99.90;;;;;;5014420;28;20183;-85
2022/11/16 00:11:17;;;;;;;12.10;8.70;;;9.10;99.90;;;;;;5014598;28;20171;-85
2022/11/16 00:13:44;;;;;;;11.40;9.10;;;9.10;99.90;;;;;;5014716;28;20174;-85
2022/11/16 00:16:15;;;;;;;11.67;9.03;;;9.10;99.90;;;;;;5014505;28;20217;-85
2022/11/16 00:18:42;;;;;;;10.93;9.33;;;9.10;99.90;;;;;;5014344;28;20189;-85
2022/11/16 00:21:08;;;;;;;9.53;8.53;;;9.10;99.90;;;;;;5014548;28;20201;-85
2022/11/16 00:23:37;;;;;;;9.37;8.13;;;9.10;99.90;;;;;;5030916;28;20252;-85
2022/11/16 00:26:08;;;;;;;12.07;8.80;;;9.10;99.90;;;;;;5014273;28;20202;-85
2022/11/16 00:28:34;;;;;;;12.47;9.60;;;9.10;99.90;;;;;;5015946;28;20182;-85
2022/11/16 00:31:02;;;;;;;13.40;9.63;;;9.10;99.90;;;;;;5018033;28;20182;-85
2022/11/16 00:33:28;;;;;;;11.03;9.73;;;9.10;99.90;;;;;;5018154;28;20674;-85
2022/11/16 00:35:54;;;;;;;12.23;9.77;;;9.10;99.90;;;;;;5018110;28;20202;-85
2022/11/16 00:38:20;;;;;;;11.97;10.50;;;9.10;99.90;;;;;;5029254;28;20181;-85
2022/11/16 00:40:46;;;;;;;15.00;10.43;;;9.00;99.90;;;;;;5054336;28;20186;-85
2022/11/16 00:43:12;;;;;;;11.80;9.63;;;9.00;99.90;;;;;;5049198;28;20195;-85
2022/11/16 00:45:39;;;;;;;12.60;9.90;;;9.10;99.90;;;;;;5017753;28;20203;-85
2022/11/16 00:48:05;;;;;;;10.03;9.03;;;9.00;99.90;;;;;;5017618;28;20178;-85
2022/11/16 00:50:31;;;;;;;13.37;10.27;;;9.00;99.90;;;;;;5017784;28;20179;-85
2022/11/16 00:52:57;;;;;;;13.37;11.30;;;9.00;99.90;;;;;;5034024;28;20183;-85
2022/11/16 00:55:24;;;;;;;11.87;10.13;;;9.00;99.90;;;;;;5017615;28;20199;-85
2022/11/16 00:57:50;;;;;;;13.13;10.50;;;9.00;99.90;;;;;;5017419;28;20181;-85
2022/11/16 01:00:18;;;;;;;11.13;9.73;;;9.00;99.90;;;;;;5017856;28;20265;-85
2022/11/16 01:02:44;;;;;;;12.23;9.60;;;8.90;99.90;;;;;;5017427;28;20206;-85
2022/11/16 01:05:11;;;;;;;13.07;10.20;;;8.90;99.90;;;;;;5033859;28;20209;-85
2022/11/16 01:07:38;;;;;;;10.47;9.37;;;8.90;99.90;;;;;;5034021;28;20264;-85
2022/11/16 01:10:07;;;;;;;13.27;9.97;;;8.90;99.90;;;;;;5017470;28;20171;-85
2022/11/16 01:12:33;;;;;;;15.07;10.80;;;8.90;99.90;;;;;;5033792;28;20194;-85
2022/11/16 01:14:59;;;;;;;12.30;10.13;;;8.90;99.90;;;;;;5017212;28;20663;-85
2022/11/16 01:17:25;;;;;;;14.70;10.43;;;8.90;99.90;;;;;;5017407;28;20221;-85
2022/11/16 01:19:52;;;;;;;12.50;9.97;;;8.90;99.90;;;;;;5017632;28;20206;-85
2022/11/16 01:22:17;;;;;;;12.57;9.90;;;8.90;99.90;;;;;;5034743;28;20183;-85
2022/11/16 01:24:45;;;;;;;13.10;10.13;;;8.90;99.90;;;;;;5033474;28;20221;-85
2022/11/16 01:27:12;;;;;;;11.03;9.53;;;8.90;99.90;;;;;;5033271;28;20265;-85
2022/11/16 01:29:42;;;;;;;10.70;9.60;;;9.00;99.90;;;;;;5017860;28;20175;-85
2022/11/16 01:32:08;;;;;;;12.33;9.67;;;8.90;99.90;;;;;;5017295;28;20209;-85
2022/11/16 01:34:34;;;;;;;9.40;8.40;;;9.00;99.90;;;;;;5016771;28;20302;-85
2022/11/16 01:37:07;;;;;;;10.40;9.13;;;8.90;99.90;;;;;;5033179;28;20194;-85
2022/11/16 01:39:37;;;;;;;11.07;8.83;;;8.90;99.90;;;;;;5032734;28;20265;-85
2022/11/16 01:42:03;;;;;;;11.63;8.70;;;8.90;99.90;;;;;;5032586;28;20274;-85
2022/11/16 01:44:33;;;;;;;11.30;9.20;;;8.90;99.90;;;;;;5031654;28;20240;-85
2022/11/16 01:47:14;;;;;;;13.20;8.23;;;8.90;99.90;;;;;;5018351;28;20186;-85
2022/11/16 01:49:47;;;;;;;9.43;8.40;;;8.90;99.90;;;;;;5016739;28;20206;-85
2022/11/16 01:52:20;;;;;;;12.73;9.00;;;8.90;99.90;;;;;;5016808;28;20182;-85
2022/11/16 01:54:50;;;;;;;11.20;9.33;;;9.00;99.90;;;;;;5016805;28;20222;-85
2022/11/16 01:57:28;;;;;;;10.00;8.33;;;8.90;99.90;;;;;;5016428;28;20182;-85
2022/11/16 02:00:06;;;;;;;9.90;8.37;;;8.90;99.90;;;;;;5017473;28;20173;-85
2022/11/16 02:02:46;;;;;;;10.33;8.90;;;8.90;99.90;;;;;;5018353;28;20194;-85
2022/11/16 02:05:40;;;;;;;10.33;9.10;;;8.90;99.90;;;;;;5018162;28;20283;-85
2022/11/16 02:11:16;;;;;;;11.37;9.40;;;8.90;99.90;;;;;;5032814;28;20194;-85
2022/11/16 02:14:08;;;;;;;10.90;8.70;;;8.90;99.90;;;;;;5016331;28;20547;-85
2022/11/16 02:16:43;;;;;;;11.00;8.77;;;8.90;99.90;;;;;;5016066;28;20185;-85
2022/11/16 02:19:24;;;;;;;9.80;8.33;;;8.90;99.90;;;;;;5032542;28;20329;-85
2022/11/16 02:22:02;;;;;;;11.23;8.87;;;8.90;99.90;;;;;;5016367;28;20166;-85
2022/11/16 02:24:56;;;;;;;10.03;8.67;;;8.90;99.90;;;;;;5015834;28;20211;-85
2022/11/16 02:28:10;;;;;;;9.23;7.37;;;8.90;99.90;;;;;;5015953;28;20175;-85
2022/11/16 02:30:43;;;;;;;8.10;7.20;;;8.90;99.90;;;;;;5011107;28;20567;-85
2022/11/16 02:33:12;;;;;;;10.43;7.13;;;8.90;99.90;;;;;;5015962;28;20205;-85
2022/11/16 02:35:52;;;;;;;10.47;8.03;;;8.90;99.90;;;;;;5015936;28;20198;-85
2022/11/16 02:38:30;;;;;;;11.57;8.40;;;8.90;99.90;;;;;;5029232;28;20209;-85
2022/11/16 02:41:13;;;;;;;12.43;8.70;;;8.90;99.90;;;;;;5035673;28;20173;-85
2022/11/16 02:43:44;;;;;;;10.00;8.13;;;8.90;99.90;;;;;;5035406;28;20255;-85
2022/11/16 02:46:35;;;;;;;10.83;8.83;;;8.90;99.90;;;;;;5035722;28;20189;-85
2022/11/16 02:49:09;;;;;;;11.23;9.60;;;8.90;99.90;;;;;;5032311;28;20654;-85
2022/11/16 02:51:37;;;;;;;12.17;9.50;;;8.80;99.90;;;;;;5011334;28;20175;-85
2022/11/16 02:54:23;;;;;;;13.80;10.40;;;8.80;99.90;;;;;;5012293;28;20258;-85
2022/11/16 02:57:02;;;;;;;13.93;10.27;;;8.90;99.90;;;;;;5012119;28;20178;-85
2022/11/16 02:59:38;;;;;;;12.07;10.17;;;8.80;99.90;;;;;;5012458;28;20206;-85
2022/11/16 03:02:29;;;;;;;12.50;9.87;;;8.90;99.90;;;;;;5044507;28;20175;-85
2022/11/16 03:05:09;;;;;;;11.93;9.70;;;8.80;99.90;;;;;;5015352;28;20213;-85
2022/11/16 03:07:55;;;;;;;10.50;9.23;;;8.90;99.90;;;;;;5031623;28;20171;-84
2022/11/16 03:13:10;;;;;;;11.83;9.57;;;8.80;99.90;;;;;;5031969;28;20194;-85
2022/11/16 03:15:39;;;;;;;12.53;9.27;;;8.90;99.90;;;;;;5015222;28;20194;-85
2022/11/16 03:18:08;;;;;;;13.37;10.37;;;8.90;99.90;;;;;;5015599;28;20174;-85
2022/11/16 03:20:36;;;;;;;11.33;8.87;;;8.90;99.90;;;;;;5015083;28;20183;-85
2022/11/16 03:23:07;;;;;;;12.87;9.20;;;8.90;99.90;;;;;;5015100;28;20256;-85
2022/11/16 03:25:42;;;;;;;10.50;8.83;;;8.90;99.90;;;;;;5015035;28;20229;-85
2022/11/16 03:28:19;;;;;;;11.63;9.60;;;8.90;99.90;;;;;;5014927;28;20178;-85
2022/11/16 03:30:56;;;;;;;11.43;9.73;;;8.90;99.90;;;;;;5014792;28;20181;-84
2022/11/16 03:33:51;;;;;;;12.87;9.93;;;8.80;99.90;;;;;;5015011;28;20170;-85
2022/11/16 03:36:33;;;;;;;13.30;9.20;;;8.90;99.90;;;;;;5014988;28;20233;-85
2022/11/16 03:39:19;;;;;;;12.50;9.80;;;8.80;99.90;;;;;;5031284;28;20190;-85
2022/11/16 03:41:47;;;;;;;12.53;9.10;;;8.90;99.90;;;;;;5031518;28;20185;-85
2022/11/16 03:44:14;;;;;;;11.33;10.07;;;8.90;99.90;;;;;;5031537;28;20211;-85
2022/11/16 03:46:42;;;;;;;12.13;9.53;;;8.80;99.90;;;;;;5031069;28;20175;-85
2022/11/16 03:49:10;;;;;;;11.87;9.60;;;8.80;99.90;;;;;;5015324;28;20269;-85
2022/11/16 03:51:37;;;;;;;11.80;9.57;;;8.80;99.90;;;;;;5014933;28;20206;-85
2022/11/16 03:54:04;;;;;;;10.47;9.37;;;8.80;99.90;;;;;;5014661;28;20206;-85
2022/11/16 03:56:31;;;;;;;10.97;9.80;;;8.80;99.90;;;;;;5031290;28;20179;-85
2022/11/16 03:58:57;;;;;;;11.37;8.80;;;8.80;99.90;;;;;;5014623;28;20185;-85
2022/11/16 04:01:23;;;;;;;10.13;9.03;;;8.80;99.90;;;;;;5014599;28;20185;-85
2022/11/16 04:03:49;;;;;;;11.30;8.83;;;8.80;99.90;;;;;;5016441;28;20202;-85
2022/11/16 04:25:47;;;;;;;5.00;4.03;;;8.80;99.90;;;;;;5034783;28;20209;-85
2022/11/16 04:28:18;;;;;;;5.83;3.77;;;8.90;99.90;;;;;;5018670;28;20232;-85
2022/11/16 04:39:09;;;;;;;2.93;2.63;;;9.20;99.90;;;;;;5033879;28;20219;-86
2022/11/16 04:47:05;;;;;;;3.00;2.70;;;9.30;99.90;;;;;;5043341;28;20211;-87
2022/11/16 04:47:19;;;;;;;2.83;2.53;;;9.40;99.90;;;;;;5034103;28;20171;-87
2022/11/16 04:49:47;;;;;;;3.10;2.40;;;9.50;99.90;;;;;;5018647;28;20256;-88
2022/11/16 04:52:16;;;;;;;3.07;2.77;;;9.50;99.90;;;;;;5018195;28;20195;-88
2022/11/16 04:54:42;;;;;;;3.10;2.77;;;9.50;99.90;;;;;;5018239;28;20669;-88
2022/11/16 04:57:08;;;;;;;2.87;2.50;;;9.50;99.90;;;;;;5034363;28;20179;-87
2022/11/16 04:59:34;;;;;;;3.80;2.90;;;9.50;99.90;;;;;;5034678;28;20190;-88
2022/11/16 05:02:07;;;;;;;2.93;2.60;;;9.50;99.90;;;;;;5018579;28;20225;-88
2022/11/16 05:04:41;;;;;;;2.80;2.60;;;9.50;99.90;;;;;;5018685;28;20210;-88
2022/11/16 05:07:10;;;;;;;2.87;2.50;;;9.50;99.90;;;;;;5017865;28;20206;-87
2022/11/16 05:09:40;;;;;;;2.93;2.63;;;9.40;99.90;;;;;;5034800;28;20190;-88
2022/11/16 05:12:06;;;;;;;4.40;2.50;;;9.40;99.90;;;;;;5034822;28;20182;-88
2022/11/16 05:14:32;;;;;;;3.93;2.60;;;9.40;99.90;;;;;;5017165;28;20233;-88
2022/11/16 05:16:58;;;;;;;3.70;3.40;;;9.30;99.90;;;;;;5017795;28;20186;-88
2022/11/16 05:22:10;;;;;;;5.00;4.00;;;9.20;99.90;;;;;;5034569;28;20182;-88
2022/11/16 05:24:37;;;;;;;3.73;3.20;;;9.20;99.90;;;;;;5017951;28;20214;-88
2022/11/16 05:27:07;;;;;;;4.07;3.07;;;9.10;99.90;;;;;;5018185;28;20186;-87
2022/11/16 05:29:35;;;;;;;4.30;3.00;;;9.10;99.90;;;;;;5018468;28;20209;-88
2022/11/16 05:32:03;;;;;;;4.03;3.60;;;9.10;99.90;;;;;;5018011;28;20207;-88
2022/11/16 05:34:29;;;;;;;5.53;4.33;;;9.10;99.90;;;;;;5017585;28;20226;-87
2022/11/16 05:36:55;;;;;;;6.30;4.10;;;9.10;99.90;;;;;;5034003;28;20228;-87
2022/11/16 05:39:21;;;;;;;6.20;4.73;;;9.00;99.90;;;;;;5034045;28;20182;-88
2022/11/16 05:41:50;;;;;;;4.83;4.23;;;9.00;99.90;;;;;;5018192;28;20174;-88
2022/11/16 05:44:16;;;;;;;5.27;4.77;;;9.00;99.90;;;;;;5017027;28;20206;-87
2022/11/16 05:46:44;;;;;;;5.57;4.93;;;9.00;99.90;;;;;;5017315;28;20179;-88
2022/11/16 05:49:11;;;;;;;5.20;4.70;;;9.00;99.90;;;;;;5017249;28;20175;-88
2022/11/16 05:51:41;;;;;;;5.90;5.30;;;9.00;99.90;;;;;;5017563;28;20221;-88
2022/11/16 05:54:10;;;;;;;7.80;6.50;;;9.00;99.90;;;;;;5016844;28;20294;-87
2022/11/16 05:56:36;;;;;;;11.10;7.27;;;9.00;99.90;;;;;;5017140;28;20182;-87
2022/11/16 05:59:02;;;;;;;7.87;7.07;;;9.00;99.90;;;;;;5017089;28;20178;-88
2022/11/16 06:01:28;;;;;;;9.80;6.77;;;9.10;99.90;;;;;;5016367;28;20209;-87
2022/11/16 06:03:55;;;;;;;7.33;6.20;;;9.00;99.90;;;;;;5017084;28;20202;-86
2022/11/16 06:06:20;;;;;;;8.67;6.27;;;9.00;99.90;;;;;;5016973;28;20240;-87
2022/11/16 06:08:48;;;;;;;6.03;5.43;;;9.00;99.90;;;;;;5016758;28;20272;-87
2022/11/16 06:11:20;;;;;;;5.43;4.93;;;9.00;99.90;;;;;;5017576;28;20170;-87
2022/11/16 06:13:46;;;;;;;6.10;5.07;;;9.00;99.90;;;;;;5016725;28;20179;-87
2022/11/16 06:16:15;;;;;;;5.27;4.70;;;9.10;99.90;;;;;;5016378;28;20227;-87
2022/11/16 06:18:44;;;;;;;6.40;4.70;;;9.00;99.90;;;;;;5016047;28;20639;-87
2022/11/16 06:21:15;;;;;;;5.20;4.70;;;9.00;99.90;;;;;;5016831;28;20182;-87
2022/11/16 06:23:43;;;;;;;5.60;4.70;;;9.00;99.90;;;;;;5016154;28;20241;-88
2022/11/16 06:26:11;;;;;;;6.57;4.70;;;9.00;99.90;;;;;;5017282;28;20186;-87
2022/11/16 06:28:40;;;;;;;4.93;4.50;;;8.90;99.90;;;;;;5033035;28;20220;-87
2022/11/16 06:31:07;;;;;;;6.53;4.93;;;8.80;99.90;;;;;;5001064;28;20189;-87
2022/11/16 06:33:38;;;;;;;6.37;4.70;;;8.80;99.90;;;;;;5052993;28;20170;-87
2022/11/16 06:36:10;;;;;;;5.07;4.53;;;8.90;99.90;;;;;;5031585;28;20183;-88
2022/11/16 06:38:36;;;;;;;5.97;4.30;;;8.80;99.90;;;;;;5014916;28;20535;-88
2022/11/16 06:41:03;;;;;;;5.03;4.57;;;8.80;99.90;;;;;;5032269;28;20201;-88
2022/11/16 06:43:33;;;;;;;5.07;4.40;;;8.80;99.90;;;;;;5031648;28;20194;-88
2022/11/16 06:45:59;;;;;;;5.40;4.90;;;8.80;99.90;;;;;;5030871;28;20201;-88
2022/11/16 06:48:29;;;;;;;6.53;5.03;;;8.80;99.90;;;;;;5015632;28;20186;-88
2022/11/16 06:50:55;;;;;;;5.80;5.03;;;8.80;99.90;;;;;;5015423;28;20191;-88
2022/11/16 06:53:21;;;;;;;5.60;4.93;;;8.80;99.90;;;;;;5032296;28;20274;-88
2022/11/16 06:55:49;;;;;;;6.97;4.70;;;8.80;99.90;;;;;;5015569;28;20531;-88
2022/11/16 06:58:16;;;;;;;6.40;5.10;;;8.80;99.90;;;;;;5015951;28;20399;-88
2022/11/16 07:00:45;;;;;;;5.30;4.77;;;8.80;99.90;;;;;;5016007;28;20178;-88
2022/11/16 07:03:25;;;;;;;6.43;4.93;;;8.80;99.90;;;;;;5031839;28;20256;-88
2022/11/16 07:05:54;;;;;;;6.60;5.80;;;8.80;99.90;;;;;;5015589;28;20221;-88
2022/11/16 07:08:20;;;;;;;6.43;5.27;;;8.70;99.90;;;;;;5014961;28;20191;-88
2022/11/16 07:10:46;;;;;;;7.90;7.10;;;8.70;99.90;;;;;;5015882;28;20233;-87
2022/11/16 07:13:12;;;;;;;6.93;6.03;;;8.70;99.90;;;;;;5006722;28;20206;-86
2022/11/16 07:15:38;;;;;;;8.03;6.17;;;8.70;99.90;;;;;;4995372;28;20286;-86
2022/11/16 07:18:06;;;;;;;5.67;5.13;;;8.70;99.90;;;;;;4995460;28;20266;-86
2022/11/16 07:20:34;;;;;;;6.60;5.30;;;8.70;99.90;;;;;;4995803;28;20183;-86
2022/11/16 07:23:02;;;;;;;6.33;4.93;;;8.70;99.90;;;;;;5011902;28;20202;-86
2022/11/16 07:25:30;;;;;;;5.60;5.10;;;8.80;99.90;;;;;;4995379;28;20205;-86
2022/11/16 07:27:57;;;;;;;7.40;4.83;;;8.70;99.90;;;;;;4995741;28;20213;-86
2022/11/16 07:30:24;;;;;;;5.90;5.27;;;8.80;99.90;;;;;;4995837;28;20222;-86
2022/11/16 07:33:10;;;;;;;4.80;4.30;;;8.80;99.90;;;;;;5011939;28;20282;-85
2022/11/16 07:36:07;;;;;;;4.17;3.77;;;8.90;99.90;;;;;;5027747;28;20218;-86
2022/11/16 07:38:33;;;;;;;4.10;3.70;;;9.00;99.90;;;;;;5030958;28;20178;-86
2022/11/16 07:41:00;;;;;;;3.77;3.30;;;9.10;99.90;;;;;;5031251;28;20183;-86
2022/11/16 07:43:35;;;;;;;4.40;3.90;;;9.20;99.90;;;;;;5031592;28;20205;-86
2022/11/16 07:46:18;;;;;;;4.43;3.83;;;9.30;99.90;;;;;;5031695;28;20181;-86
2022/11/16 07:48:45;;;;;;;5.90;5.00;;;9.40;99.90;;;;;;5031036;28;20181;-85
2022/11/16 07:51:18;;;;;;;4.87;4.27;;;9.50;99.90;;;;;;5047597;28;20189;-86
2022/11/16 07:54:02;;;;;;;3.97;3.13;;;9.60;99.90;;;;;;5031250;28;20221;-86
2022/11/16 07:56:28;;;;;;;5.07;4.53;;;9.70;99.90;;;;;;5047974;28;20241;-86
2022/11/16 07:58:54;;;;;;;8.20;7.50;;;9.80;99.90;;;;;;5061638;28;20325;-86
2022/11/16 08:01:20;;;;;;;8.43;6.67;;;9.90;99.90;;;;;;5034620;28;20200;-86
2022/11/16 08:03:52;;;;;;;4.97;4.13;;;9.90;99.90;;;;;;5034854;28;20206;-86
2022/11/16 08:06:27;;;;;;;3.70;3.37;;;10.00;99.90;;;;;;5015390;28;20214;-87
2022/11/16 08:08:55;;;;;;;4.00;3.20;;;10.10;99.90;;;;;;5031200;28;20182;-87
2022/11/16 08:11:22;;;;;;;4.40;2.97;;;10.20;99.90;;;;;;5031337;28;20181;-86
2022/11/16 08:13:50;;;;;;;4.07;3.47;;;10.20;99.90;;;;;;5031095;28;20179;-87
2022/11/16 08:16:19;;;;;;;4.43;3.27;;;10.30;99.90;;;;;;5031320;28;20706;-86
2022/11/16 08:18:47;;;;;;;3.17;2.87;;;10.30;99.90;;;;;;5031022;28;20189;-86
2022/11/16 08:21:17;;;;;;;3.17;2.03;;;10.40;99.90;;;;;;5031415;28;20196;-86
2022/11/16 08:23:44;;;;;;;3.10;2.33;;;10.40;99.90;;;;;;5030494;28;20217;-86
2022/11/16 08:26:14;;;;;;;2.50;2.30;;;10.40;99.90;;;;;;5031004;28;20179;-86
2022/11/16 08:28:46;;;;;;;2.33;2.13;;;10.30;99.90;;;;;;5030659;28;20175;-86
2022/11/16 08:31:19;;;;;;;4.33;3.03;;;10.30;99.90;;;;;;5030925;28;20204;-86
2022/11/16 08:33:50;;;;;;;5.10;3.50;;;10.30;99.90;;;;;;5031326;28;20175;-86
2022/11/16 08:36:17;;;;;;;4.83;4.07;;;10.30;99.90;;;;;;5012058;28;20196;-86
2022/11/16 08:38:46;;;;;;;4.53;3.90;;;10.30;99.90;;;;;;5011476;28;20184;-86
2022/11/16 08:41:13;;;;;;;4.60;4.10;;;10.30;99.90;;;;;;5011178;28;20202;-86
2022/11/16 08:43:39;;;;;;;6.53;4.73;;;10.30;99.90;;;;;;5011185;28;20553;-86
2022/11/16 08:46:08;;;;;;;5.93;4.80;;;10.30;99.90;;;;;;5011522;28;20187;-86
2022/11/16 08:48:34;;;;;;;8.17;5.40;;;10.30;99.90;;;;;;5010817;28;20176;-86
2022/11/16 08:51:07;;;;;;;8.40;6.03;;;10.30;99.90;;;;;;5013255;28;20238;-87
2022/11/16 08:53:33;;;;;;;6.07;5.20;;;10.30;99.90;;;;;;4998194;28;20206;-86
2022/11/16 08:56:08;;;;;;;11.30;7.20;;;10.40;99.90;;;;;;5014457;28;20192;-86
2022/11/16 08:58:36;;;;;;;15.70;8.47;;;10.50;99.90;;;;;;5014854;28;20182;-86
2022/11/16 09:01:23;;;;;;;10.43;6.80;;;10.60;99.90;;;;;;5014464;28;20260;-87
2022/11/16 09:03:50;;;;;;;9.27;6.60;;;10.70;99.90;;;;;;5027628;28;20205;-86
2022/11/16 09:06:16;;;;;;;8.40;6.53;;;10.70;99.90;;;;;;5017956;28;20192;-87
2022/11/16 09:08:44;;;;;;;9.43;6.30;;;10.70;99.90;;;;;;5034126;28;20248;-86
2022/11/16 09:11:14;;;;;;;9.47;7.13;;;10.70;99.90;;;;;;5034479;28;20171;-87
2022/11/16 09:13:40;;;;;;;9.13;6.87;;;10.70;99.90;;;;;;5034054;28;20182;-86
2022/11/16 09:16:07;;;;;;;6.83;5.50;;;10.70;99.90;;;;;;5034171;28;20211;-86
2022/11/16 09:18:34;;;;;;;6.13;4.80;;;10.70;99.90;;;;;;5030534;28;20281;-87
2022/11/16 09:21:00;;;;;;;6.63;4.57;;;10.70;99.90;;;;;;5031308;28;20208;-86
2022/11/16 09:23:27;;;;;;;6.43;3.97;;;10.70;99.90;;;;;;5044422;28;20240;-86
2022/11/16 09:25:53;;;;;;;5.90;3.03;;;10.80;99.90;;;;;;5034015;28;20202;-86
2022/11/16 09:28:20;;;;;;;5.00;2.80;;;10.90;99.90;;;;;;5033700;28;20555;-80
2022/11/16 09:30:49;;;;;;;5.47;2.93;;;11.10;99.90;;;;;;5015160;28;20191;-87
2022/11/16 09:33:16;;;;;;;4.30;2.17;;;11.20;99.90;;;;;;5018374;28;20648;-86
2022/11/16 09:35:41;;;;;;;4.57;1.80;;;11.40;99.90;;;;;;5016505;28;20238;-86
2022/11/16 09:38:11;;;;;;;3.20;1.83;;;11.50;99.90;;;;;;5016231;28;20184;-86
2022/11/16 09:40:41;;;;;;;1.90;1.60;;;11.60;99.90;;;;;;4997489;28;20200;-86
2022/11/16 09:43:21;;;;;;;2.93;1.40;;;11.70;99.90;;;;;;4997503;28;20216;-86
2022/11/16 09:46:18;;;;;;;6.03;1.77;;;11.80;99.90;;;;;;5013604;28;20666;-86
2022/11/16 09:48:44;;;;;;;2.40;1.50;;;12.00;99.90;;;;;;4996922;28;20658;-86
2022/11/16 09:51:14;;;;;;;2.77;1.53;;;12.10;99.90;;;;;;4997280;28;20188;-86
2022/11/16 09:54:10;;;;;;;4.07;1.30;;;12.20;99.90;;;;;;5013753;28;20225;-86
2022/11/16 09:56:41;;;;;;;3.67;1.40;;;12.30;99.90;;;;;;4996412;28;20256;-85
2022/11/16 09:59:06;;;;;;;1.60;1.10;;;12.40;99.90;;;;;;4996814;28;20175;-86
2022/11/16 10:01:35;;;;;;;3.53;1.50;;;12.60;99.90;;;;;;4996521;28;20190;-86
2022/11/16 10:04:16;;;;;;;2.73;1.40;;;12.70;99.90;;;;;;4996958;28;20233;-86
2022/11/16 10:06:47;;;;;;;2.80;1.20;;;12.80;99.90;;;;;;5012593;28;20190;-86
2022/11/16 10:09:16;;;;;;;5.20;1.13;;;12.80;99.90;;;;;;5012974;28;20591;-86
2022/11/16 10:11:48;;;;;;;3.13;0.90;;;12.80;99.90;;;;;;4997235;28;20199;-86
2022/11/16 10:14:48;;;;;;;3.13;0.87;;;12.90;99.90;;;;;;4996419;28;20227;-86
2022/11/16 10:17:38;;;;;;;3.57;1.00;;;12.90;99.90;;;;;;5012976;28;20175;-86
2022/11/16 10:20:09;;;;;;;2.93;1.30;;;13.00;99.90;;;;;;4996626;28;20175;-86
2022/11/16 10:22:53;;;;;;;2.10;1.00;;;13.00;99.90;;;;;;4996122;28;20195;-86
2022/11/16 10:25:40;;;;;;;1.33;1.07;;;13.10;99.90;;;;;;4996474;28;20215;-86
2022/11/16 10:28:21;;;;;;;1.97;0.90;;;13.10;99.90;;;;;;5012593;28;20166;-86
2022/11/16 10:31:03;;;;;;;5.80;1.10;;;13.20;99.90;;;;;;5012906;28;20159;-86
2022/11/16 10:33:34;;;;;;;4.50;1.03;;;13.20;99.90;;;;;;5012927;28;20178;-86
2022/11/16 10:36:05;;;;;;;2.03;0.80;;;13.10;99.90;;;;;;5012658;28;20210;-86
2022/11/16 10:38:32;;;;;;;2.80;0.97;;;13.10;99.90;;;;;;5032102;28;20212;-86
2022/11/16 10:41:12;;;;;;;2.17;0.87;;;13.20;99.90;;;;;;5032215;28;20220;-86
2022/11/16 10:43:41;;;;;;;5.37;2.43;;;13.10;99.90;;;;;;5032119;28;20206;-86
2022/11/16 10:46:25;;;;;;;2.90;1.00;;;12.90;99.90;;;;;;5032186;28;20175;-86
2022/11/16 10:48:53;;;;;;;3.33;0.87;;;12.70;99.90;;;;;;5048451;28;20175;-86
2022/11/16 10:51:21;;;;;;;2.43;1.00;;;12.60;99.90;;;;;;5032300;28;20262;-86
2022/11/16 10:53:48;;;;;;;1.60;1.00;;;12.40;99.90;;;;;;5031861;28;20206;-87
2022/11/16 10:56:38;;;;;;;1.97;0.63;;;12.30;99.90;;;;;;5032680;28;20244;-86
2022/11/16 10:59:07;;;;;;;3.80;0.77;;;12.10;99.90;;;;;;5032060;28;20183;-86
2022/11/16 11:01:40;;;;;;;2.17;0.67;;;11.90;99.90;;;;;;5048609;28;20186;-86
2022/11/16 11:04:26;;;;;;;3.60;0.87;;;12.00;99.90;;;;;;5048358;28;20293;-86
2022/11/16 11:06:55;;;;;;;2.30;0.80;;;12.00;99.90;;;;;;5031597;28;20184;-86
2022/11/16 11:09:33;;;;;;;1.73;0.90;;;12.00;99.90;;;;;;5048328;28;20273;-86
2022/11/16 11:12:37;;;;;;;6.07;0.97;;;12.10;99.90;;;;;;5031448;28;20188;-86
2022/11/16 11:15:21;;;;;;;4.13;0.80;;;12.20;99.90;;;;;;5031258;28;20201;-86
2022/11/16 11:17:49;;;;;;;4.07;0.80;;;12.30;99.90;;;;;;5031513;28;20175;-86
2022/11/16 11:20:15;;;;;;;2.83;0.97;;;12.40;99.90;;;;;;5031649;28;20189;-86
2022/11/16 11:23:05;;;;;;;3.17;0.80;;;12.60;99.90;;;;;;5031899;28;20182;-86
2022/11/16 11:25:37;;;;;;;2.40;0.90;;;12.80;99.90;;;;;;5048295;28;20276;-86
2022/11/16 11:28:28;;;;;;;2.00;0.97;;;12.90;99.90;;;;;;5031417;28;20177;-86
2022/11/16 11:31:27;;;;;;;1.67;0.60;;;13.00;99.90;;;;;;5031509;28;20185;-82
2022/11/16 11:34:03;;;;;;;2.90;0.80;;;13.10;99.90;;;;;;5015225;28;20214;-86
2022/11/16 11:36:38;;;;;;;1.10;0.80;;;13.30;99.90;;;;;;5030805;28;20186;-86
2022/11/16 11:39:29;;;;;;;2.37;0.70;;;13.40;99.90;;;;;;5014579;28;20186;-87
2022/11/16 11:42:14;;;;;;;2.03;0.83;;;13.40;99.90;;;;;;5028636;28;20198;-86
2022/11/16 11:44:49;;;;;;;2.13;1.07;;;13.50;99.90;;;;;;5011821;28;20219;-87
2022/11/16 11:47:49;;;;;;;5.60;1.30;;;13.50;99.90;;;;;;5011882;28;20179;-86
2022/11/16 11:50:15;;;;;;;2.27;1.30;;;13.50;99.90;;;;;;5022125;28;20213;-86
2022/11/16 11:53:18;;;;;;;4.27;1.00;;;13.60;99.90;;;;;;5032142;28;20174;-86
2022/11/16 11:55:44;;;;;;;4.17;1.40;;;13.70;99.90;;;;;;5015430;28;20261;-86
2022/11/16 11:58:17;;;;;;;4.10;1.30;;;13.90;99.90;;;;;;5031460;28;20262;-86
2022/11/16 12:00:55;;;;;;;2.57;1.00;;;14.00;99.90;;;;;;5023840;28;20187;-86
2022/11/16 12:03:46;;;;;;;4.37;1.70;;;14.20;99.90;;;;;;5027952;28;20245;-86
2022/11/16 12:06:42;;;;;;;2.13;0.90;;;14.30;99.90;;;;;;5031238;28;20182;-86
2022/11/16 12:09:42;;;;;;;3.80;0.90;;;14.30;99.90;;;;;;5011296;28;20182;-87
2022/11/16 12:12:25;;;;;;;3.33;0.90;;;14.30;99.90;;;;;;5031020;28;20167;-86
2022/11/16 12:15:17;;;;;;;2.67;0.90;;;14.30;99.90;;;;;;5021659;28;20226;-86
2022/11/16 12:18:14;;;;;;;1.70;0.83;;;14.30;99.90;;;;;;5010983;28;20175;-85
2022/11/16 12:21:05;;;;;;;2.77;0.90;;;14.40;99.90;;;;;;5027854;28;20226;-86
2022/11/16 12:24:12;;;;;;;2.93;0.90;;;14.30;99.90;;;;;;5011178;28;20214;-87
2022/11/16 12:27:09;;;;;;;3.87;1.20;;;14.30;99.90;;;;;;5014884;28;20190;-86
2022/11/16 12:29:47;;;;;;;1.93;0.87;;;14.40;99.90;;;;;;5016353;28;20176;-87
2022/11/16 12:32:18;;;;;;;2.47;0.80;;;14.50;99.90;;;;;;5015128;28;20199;-86
2022/11/16 12:35:04;;;;;;;1.93;0.80;;;14.50;99.90;;;;;;5015077;28;20210;-86
2022/11/16 12:37:48;;;;;;;2.40;1.00;;;14.60;99.90;;;;;;5015028;28;20206;-86
2022/11/16 12:40:32;;;;;;;2.40;0.73;;;14.60;99.90;;;;;;5014868;28;20171;-86
2022/11/16 12:43:10;;;;;;;1.57;0.83;;;14.60;99.90;;;;;;5015266;28;20199;-87
2022/11/16 12:45:57;;;;;;;1.50;0.77;;;14.70;99.90;;;;;;5017034;28;20230;-86
2022/11/16 12:48:32;;;;;;;2.03;0.70;;;14.80;99.90;;;;;;5014689;28;20219;-86
2022/11/16 12:51:13;;;;;;;2.57;0.93;;;14.80;99.90;;;;;;5014943;28;20174;-86
2022/11/16 12:54:11;;;;;;;3.30;0.90;;;14.90;99.90;;;;;;4998529;28;20228;-86
2022/11/16 12:56:46;;;;;;;1.77;1.00;;;15.10;99.90;;;;;;5033798;28;20187;-86
2022/11/16 12:59:19;;;;;;;1.17;0.63;;;15.10;99.90;;;;;;5033917;28;20238;-86
2022/11/16 13:02:16;;;;;;;1.30;0.70;;;15.10;99.90;;;;;;5017878;28;20174;-87
2022/11/16 13:04:50;;;;;;;3.10;1.00;;;15.10;99.90;;;;;;5017308;28;20221;-86
2022/11/16 13:07:35;;;;;;;1.03;0.70;;;15.00;99.90;;;;;;5033277;28;20176;-87
2022/11/16 13:10:18;;;;;;;2.40;0.77;;;14.90;99.90;;;;;;5034051;28;20171;-86
2022/11/16 13:12:49;;;;;;;3.57;1.07;;;14.90;99.90;;;;;;5033650;28;20211;-86
2022/11/16 13:15:19;;;;;;;2.40;0.90;;;14.90;99.90;;;;;;5033729;28;20201;-86
2022/11/16 13:18:02;;;;;;;2.47;0.80;;;14.90;99.90;;;;;;5033821;28;20190;-86
2022/11/16 13:20:42;;;;;;;2.80;0.80;;;14.90;99.90;;;;;;5033498;28;20222;-86
2022/11/16 13:23:20;;;;;;;3.47;1.20;;;15.00;99.90;;;;;;5033629;28;20228;-86
2022/11/16 13:26:13;;;;;;;3.50;0.87;;;14.90;99.90;;;;;;5017078;28;20210;-86
2022/11/16 13:29:11;;;;;;;2.23;0.80;;;14.80;99.90;;;;;;5017323;28;20178;-85
2022/11/16 13:31:55;;;;;;;1.80;0.90;;;14.70;99.90;;;;;;5033978;28;20244;-87
2022/11/16 13:34:23;;;;;;;1.97;1.03;;;14.60;99.90;;;;;;5033738;28;20205;-86
2022/11/16 13:36:49;;;;;;;2.77;0.97;;;14.60;99.90;;;;;;5032905;28;20190;-87
2022/11/16 13:39:18;;;;;;;1.93;0.90;;;14.50;99.90;;;;;;5017507;28;20198;-86
2022/11/16 13:41:49;;;;;;;2.37;1.10;;;14.40;99.90;;;;;;5017178;28;20201;-86
2022/11/16 13:44:20;;;;;;;2.97;1.10;;;14.30;99.90;;;;;;5016945;28;20210;-86
2022/11/16 13:46:46;;;;;;;1.90;0.90;;;14.30;99.90;;;;;;5017169;28;20189;-87
2022/11/16 13:49:39;;;;;;;2.00;0.70;;;14.30;99.90;;;;;;5017258;28;20174;-87
2022/11/16 13:52:11;;;;;;;1.40;0.90;;;14.20;99.90;;;;;;5017416;28;20175;-87
2022/11/16 13:54:44;;;;;;;1.77;0.80;;;14.20;99.90;;;;;;5016871;28;20217;-86
2022/11/16 13:57:32;;;;;;;1.57;0.83;;;14.30;99.90;;;;;;5017032;28;20179;-86
2022/11/16 14:00:01;;;;;;;3.33;0.90;;;14.20;99.90;;;;;;5017418;28;20183;-86